EDW363 LSZH-LGSR
Flight info
| Callsign | EDW363 |
|---|---|
| Flight time | N/A |
| Altitude | 39000 |
| Route | DEGES Z2 XEBIX L607 ELMEM N606 GIRIS DCT NIVAS DCT PEVAL DCT PETAK DCT PINDO UL607 GIVIS |
| Aircraft | A320/M-SDE3FGHIRWY/LB1 |
Departure
| Time | N/A |
|---|---|
| Airport | Zürich Airport (LSZH) |
Arrival
| Time | 2026-05-07 16:50 |
|---|---|
| Airport | Santorini International Airport (LGSR) |
| Time | Latitude | Longitude | Altitude | Speed | Heading |
|---|---|---|---|---|---|
| 2026-05-07 15:06 | 44.78614 | 14.23297 | 39018 ft | 467 kts | 133° |
| 2026-05-07 15:06 | 44.74670 | 14.30565 | 39025 ft | 468 kts | 133° |
| 2026-05-07 15:07 | 44.70740 | 14.37777 | 39038 ft | 468 kts | 133° |
| 2026-05-07 15:07 | 44.66780 | 14.45034 | 39041 ft | 468 kts | 133° |
| 2026-05-07 15:08 | 44.62818 | 14.52283 | 39027 ft | 468 kts | 133° |
| 2026-05-07 15:08 | 44.58845 | 14.59529 | 39033 ft | 468 kts | 133° |
| 2026-05-07 15:09 | 44.54873 | 14.66748 | 39037 ft | 468 kts | 133° |
| 2026-05-07 15:09 | 44.50894 | 14.73958 | 39042 ft | 468 kts | 133° |
| 2026-05-07 15:10 | 44.46911 | 14.81149 | 39045 ft | 467 kts | 133° |
| 2026-05-07 15:10 | 44.42927 | 14.88354 | 39045 ft | 467 kts | 133° |
| 2026-05-07 15:11 | 44.38945 | 14.95528 | 39029 ft | 467 kts | 133° |
| 2026-05-07 15:11 | 44.34962 | 15.02684 | 39032 ft | 467 kts | 133° |
| 2026-05-07 15:12 | 44.30967 | 15.09847 | 39024 ft | 467 kts | 133° |
| 2026-05-07 15:12 | 44.26966 | 15.17001 | 39050 ft | 467 kts | 133° |
| 2026-05-07 15:13 | 44.22965 | 15.24138 | 39065 ft | 467 kts | 133° |
| 2026-05-07 15:13 | 44.18955 | 15.31270 | 39075 ft | 467 kts | 133° |
| 2026-05-07 15:14 | 44.14939 | 15.38391 | 39076 ft | 467 kts | 133° |
| 2026-05-07 15:14 | 44.10920 | 15.45503 | 39044 ft | 468 kts | 133° |
| 2026-05-07 15:15 | 44.07574 | 15.51414 | 39048 ft | 468 kts | 133° |
| 2026-05-07 15:15 | 44.03535 | 15.58526 | 39051 ft | 469 kts | 133° |
| 2026-05-07 15:16 | 43.99492 | 15.65634 | 39053 ft | 469 kts | 133° |
| 2026-05-07 15:16 | 43.95444 | 15.72719 | 39045 ft | 469 kts | 133° |
| 2026-05-07 15:17 | 43.91382 | 15.79806 | 39057 ft | 468 kts | 133° |
| 2026-05-07 15:17 | 43.87339 | 15.86875 | 39040 ft | 468 kts | 133° |
| 2026-05-07 15:18 | 43.83285 | 15.93952 | 39055 ft | 469 kts | 134° |
| 2026-05-07 15:18 | 43.79220 | 16.01000 | 39047 ft | 469 kts | 134° |
| 2026-05-07 15:19 | 43.75139 | 16.08054 | 39056 ft | 469 kts | 134° |
| 2026-05-07 15:19 | 43.71063 | 16.15086 | 39066 ft | 469 kts | 134° |
| 2026-05-07 15:20 | 43.66974 | 16.22138 | 39087 ft | 469 kts | 134° |
| 2026-05-07 15:20 | 43.62894 | 16.29162 | 39086 ft | 469 kts | 134° |
| 2026-05-07 15:21 | 43.58806 | 16.36180 | 39054 ft | 469 kts | 134° |
| 2026-05-07 15:21 | 43.54714 | 16.43174 | 39067 ft | 469 kts | 134° |
| 2026-05-07 15:22 | 43.50614 | 16.50172 | 39076 ft | 469 kts | 134° |
| 2026-05-07 15:22 | 43.46515 | 16.57158 | 39087 ft | 469 kts | 134° |
| 2026-05-07 15:23 | 43.42404 | 16.64140 | 39086 ft | 469 kts | 134° |
| 2026-05-07 15:23 | 43.38294 | 16.71106 | 39077 ft | 469 kts | 134° |
| 2026-05-07 15:24 | 43.34176 | 16.78067 | 39069 ft | 470 kts | 134° |
| 2026-05-07 15:24 | 43.30036 | 16.85047 | 39072 ft | 471 kts | 134° |
| 2026-05-07 15:25 | 43.25896 | 16.92010 | 39074 ft | 472 kts | 134° |
| 2026-05-07 15:25 | 43.21752 | 16.98976 | 39080 ft | 472 kts | 134° |
| 2026-05-07 15:26 | 43.17591 | 17.05938 | 39069 ft | 472 kts | 134° |
| 2026-05-07 15:26 | 43.13433 | 17.12885 | 39078 ft | 472 kts | 134° |
| 2026-05-07 15:27 | 43.09268 | 17.19826 | 39074 ft | 471 kts | 134° |
| 2026-05-07 15:27 | 43.05102 | 17.26752 | 39075 ft | 472 kts | 134° |
| 2026-05-07 15:28 | 43.00929 | 17.33673 | 39080 ft | 472 kts | 135° |
| 2026-05-07 15:28 | 42.96779 | 17.40547 | 39067 ft | 472 kts | 134° |
| 2026-05-07 15:29 | 42.92600 | 17.47451 | 39079 ft | 472 kts | 134° |
| 2026-05-07 15:29 | 42.88418 | 17.54349 | 39086 ft | 472 kts | 134° |
| 2026-05-07 15:30 | 42.84230 | 17.61238 | 39076 ft | 472 kts | 135° |
| 2026-05-07 15:30 | 42.80030 | 17.68119 | 39076 ft | 473 kts | 135° |
| 2026-05-07 15:31 | 42.75825 | 17.75005 | 39063 ft | 473 kts | 134° |
| 2026-05-07 15:31 | 42.71602 | 17.81883 | 39072 ft | 474 kts | 135° |
| 2026-05-07 15:32 | 42.67376 | 17.88756 | 39100 ft | 474 kts | 135° |
| 2026-05-07 15:32 | 42.63144 | 17.95626 | 39096 ft | 474 kts | 135° |
| 2026-05-07 15:33 | 42.58917 | 18.02496 | 39083 ft | 474 kts | 135° |
| 2026-05-07 15:33 | 42.54675 | 18.09355 | 39071 ft | 475 kts | 135° |
| 2026-05-07 15:34 | 42.50415 | 18.16214 | 39076 ft | 476 kts | 135° |
| 2026-05-07 15:34 | 42.46144 | 18.23084 | 39078 ft | 477 kts | 135° |
| 2026-05-07 15:35 | 42.41869 | 18.29948 | 39085 ft | 477 kts | 135° |
| 2026-05-07 15:35 | 42.37593 | 18.36812 | 39088 ft | 477 kts | 135° |
| 2026-05-07 15:36 | 42.33310 | 18.43662 | 39081 ft | 477 kts | 135° |
| 2026-05-07 15:36 | 42.29005 | 18.50503 | 39060 ft | 478 kts | 135° |
| 2026-05-07 15:37 | 42.24700 | 18.57346 | 39067 ft | 479 kts | 135° |
| 2026-05-07 15:37 | 42.20388 | 18.64201 | 39069 ft | 479 kts | 135° |
| 2026-05-07 15:38 | 42.16073 | 18.71052 | 39071 ft | 480 kts | 135° |
| 2026-05-07 15:38 | 42.11745 | 18.77898 | 39074 ft | 480 kts | 135° |
| 2026-05-07 15:39 | 42.07403 | 18.84733 | 39086 ft | 480 kts | 135° |
| 2026-05-07 15:39 | 42.03058 | 18.91555 | 39053 ft | 481 kts | 135° |
| 2026-05-07 15:40 | 41.98703 | 18.98384 | 39058 ft | 482 kts | 135° |
| 2026-05-07 15:40 | 41.94330 | 19.05235 | 39061 ft | 483 kts | 136° |
| 2026-05-07 15:41 | 41.89939 | 19.12089 | 39058 ft | 484 kts | 136° |
| 2026-05-07 15:41 | 41.85546 | 19.18933 | 39070 ft | 484 kts | 135° |
| 2026-05-07 15:42 | 41.81145 | 19.25768 | 39070 ft | 484 kts | 136° |
| 2026-05-07 15:42 | 41.76710 | 19.32567 | 39042 ft | 483 kts | 138° |
| 2026-05-07 15:43 | 41.71998 | 19.38958 | 39040 ft | 482 kts | 142° |
| 2026-05-07 15:43 | 41.67096 | 19.45090 | 39036 ft | 483 kts | 143° |
| 2026-05-07 15:44 | 41.62198 | 19.51264 | 39046 ft | 485 kts | 142° |
| 2026-05-07 15:44 | 41.57360 | 19.57524 | 39050 ft | 485 kts | 141° |
| 2026-05-07 15:45 | 41.52526 | 19.63831 | 39050 ft | 486 kts | 141° |
| 2026-05-07 15:45 | 41.47668 | 19.70129 | 39057 ft | 487 kts | 142° |
| 2026-05-07 15:46 | 41.40312 | 19.79565 | 39069 ft | 491 kts | 142° |
| 2026-05-07 15:47 | 41.35386 | 19.85873 | 39064 ft | 492 kts | 142° |
| 2026-05-07 15:47 | 41.30466 | 19.92171 | 39072 ft | 492 kts | 142° |
| 2026-05-07 15:48 | 41.25525 | 19.98490 | 39074 ft | 492 kts | 142° |
| 2026-05-07 15:48 | 41.20574 | 20.04793 | 39027 ft | 494 kts | 143° |
| 2026-05-07 15:49 | 41.15594 | 20.11114 | 39047 ft | 497 kts | 142° |
| 2026-05-07 15:49 | 41.10591 | 20.17460 | 39051 ft | 498 kts | 142° |
| 2026-05-07 15:50 | 41.05583 | 20.23801 | 39062 ft | 499 kts | 142° |
| 2026-05-07 15:50 | 41.00560 | 20.30134 | 39067 ft | 499 kts | 142° |
| 2026-05-07 15:51 | 40.95526 | 20.36481 | 39091 ft | 500 kts | 142° |
| 2026-05-07 15:51 | 40.90481 | 20.42837 | 39093 ft | 500 kts | 142° |
| 2026-05-07 15:52 | 40.85427 | 20.49173 | 39117 ft | 500 kts | 142° |
| 2026-05-07 15:52 | 40.80381 | 20.55474 | 39127 ft | 499 kts | 142° |
| 2026-05-07 15:53 | 40.75341 | 20.61774 | 39140 ft | 499 kts | 142° |
| 2026-05-07 15:53 | 40.70303 | 20.68061 | 39102 ft | 499 kts | 143° |
| 2026-05-07 15:54 | 40.65244 | 20.74350 | 39087 ft | 502 kts | 143° |
| 2026-05-07 15:54 | 40.60141 | 20.80673 | 39098 ft | 505 kts | 143° |
| 2026-05-07 15:55 | 40.55029 | 20.87005 | 39111 ft | 505 kts | 142° |
| 2026-05-07 15:55 | 40.49914 | 20.93327 | 39121 ft | 505 kts | 143° |
| 2026-05-07 15:56 | 40.44738 | 20.99588 | 39084 ft | 505 kts | 145° |
| 2026-05-07 15:56 | 40.39441 | 21.05656 | 39091 ft | 508 kts | 146° |
| 2026-05-07 15:57 | 40.34976 | 21.10691 | 39090 ft | 511 kts | 146° |
| 2026-05-07 15:57 | 40.29605 | 21.16817 | 39112 ft | 513 kts | 145° |
| 2026-05-07 15:58 | 40.24241 | 21.22989 | 39132 ft | 514 kts | 145° |
| 2026-05-07 15:58 | 40.18876 | 21.29153 | 39114 ft | 514 kts | 145° |
| 2026-05-07 15:59 | 40.13436 | 21.35365 | 39097 ft | 517 kts | 145° |
| 2026-05-07 15:59 | 40.08003 | 21.41560 | 39091 ft | 519 kts | 145° |
| 2026-05-07 16:00 | 40.02591 | 21.47720 | 39093 ft | 521 kts | 145° |
| 2026-05-07 16:00 | 39.97067 | 21.53976 | 39091 ft | 523 kts | 145° |
| 2026-05-07 16:01 | 39.91603 | 21.60159 | 39083 ft | 524 kts | 145° |
| 2026-05-07 16:01 | 39.86078 | 21.66385 | 39095 ft | 526 kts | 145° |
| 2026-05-07 16:02 | 39.80538 | 21.72613 | 39101 ft | 527 kts | 145° |
| 2026-05-07 16:02 | 39.74999 | 21.78852 | 39103 ft | 527 kts | 145° |
| 2026-05-07 16:03 | 39.69451 | 21.85084 | 39099 ft | 527 kts | 145° |
| 2026-05-07 16:03 | 39.63902 | 21.91301 | 39076 ft | 528 kts | 145° |
| 2026-05-07 16:04 | 39.58323 | 21.97525 | 39072 ft | 529 kts | 145° |
| 2026-05-07 16:04 | 39.52729 | 22.03752 | 39074 ft | 531 kts | 145° |
| 2026-05-07 16:05 | 39.47120 | 22.09974 | 39082 ft | 531 kts | 145° |
| 2026-05-07 16:05 | 39.41503 | 22.16199 | 39082 ft | 532 kts | 145° |
| 2026-05-07 16:06 | 39.35877 | 22.22435 | 39071 ft | 534 kts | 144° |
| 2026-05-07 16:06 | 39.30229 | 22.28673 | 39078 ft | 535 kts | 145° |
| 2026-05-07 16:07 | 39.24562 | 22.34908 | 39096 ft | 535 kts | 145° |
| 2026-05-07 16:07 | 39.18893 | 22.41130 | 39105 ft | 535 kts | 145° |
| 2026-05-07 16:08 | 39.13229 | 22.47340 | 39106 ft | 535 kts | 145° |
| 2026-05-07 16:08 | 39.07556 | 22.53551 | 39083 ft | 535 kts | 144° |
| 2026-05-07 16:09 | 39.01878 | 22.59755 | 39092 ft | 536 kts | 144° |
| 2026-05-07 16:09 | 38.96192 | 22.65956 | 39101 ft | 536 kts | 144° |
| 2026-05-07 16:10 | 38.90500 | 22.72153 | 39109 ft | 536 kts | 144° |
| 2026-05-07 16:10 | 38.84813 | 22.78336 | 39124 ft | 536 kts | 144° |
| 2026-05-07 16:11 | 38.79111 | 22.84502 | 39095 ft | 537 kts | 144° |
| 2026-05-07 16:11 | 38.73390 | 22.90668 | 39097 ft | 538 kts | 144° |
| 2026-05-07 16:12 | 38.67669 | 22.96831 | 39103 ft | 538 kts | 144° |
| 2026-05-07 16:12 | 38.61940 | 23.02990 | 39109 ft | 538 kts | 144° |
| 2026-05-07 16:13 | 38.56210 | 23.09149 | 39112 ft | 538 kts | 144° |
| 2026-05-07 16:13 | 38.50476 | 23.15293 | 39107 ft | 538 kts | 144° |
| 2026-05-07 16:14 | 38.44768 | 23.21386 | 39107 ft | 539 kts | 144° |
| 2026-05-07 16:14 | 38.39018 | 23.27513 | 39111 ft | 539 kts | 144° |
| 2026-05-07 16:15 | 38.33264 | 23.33634 | 39116 ft | 539 kts | 144° |
| 2026-05-07 16:15 | 38.27506 | 23.39743 | 39120 ft | 539 kts | 144° |
| 2026-05-07 16:16 | 38.21750 | 23.45844 | 39133 ft | 539 kts | 144° |
| 2026-05-07 16:16 | 38.15936 | 23.52001 | 39112 ft | 540 kts | 144° |
| 2026-05-07 16:17 | 38.10154 | 23.58107 | 39111 ft | 541 kts | 144° |
| 2026-05-07 16:17 | 38.04359 | 23.64209 | 39118 ft | 542 kts | 144° |
| 2026-05-07 16:18 | 37.98589 | 23.70267 | 39111 ft | 542 kts | 144° |
| 2026-05-07 16:18 | 37.92740 | 23.76393 | 39153 ft | 542 kts | 144° |
| 2026-05-07 16:19 | 37.87246 | 23.82858 | 39150 ft | 546 kts | 131° |
| 2026-05-07 16:19 | 37.82363 | 23.90216 | 39147 ft | 546 kts | 131° |
| 2026-05-07 16:20 | 37.77470 | 23.97538 | 39144 ft | 546 kts | 132° |
| 2026-05-07 16:20 | 37.72554 | 24.04862 | 39148 ft | 546 kts | 131° |
| 2026-05-07 16:21 | 37.67631 | 24.12188 | 39147 ft | 547 kts | 131° |
| 2026-05-07 16:21 | 37.62708 | 24.19512 | 39143 ft | 547 kts | 131° |
| 2026-05-07 16:22 | 37.57748 | 24.26788 | 39143 ft | 547 kts | 135° |
| 2026-05-07 16:22 | 37.51936 | 24.32852 | 39141 ft | 539 kts | 153° |
| 2026-05-07 16:23 | 37.45570 | 24.37834 | 39148 ft | 539 kts | 153° |
| 2026-05-07 16:23 | 37.39198 | 24.42832 | 39140 ft | 540 kts | 153° |
| 2026-05-07 16:24 | 37.32826 | 24.47832 | 38885 ft | 540 kts | 153° |
| 2026-05-07 16:24 | 37.29629 | 24.50333 | 38616 ft | 542 kts | 153° |
| 2026-05-07 16:24 | 37.26429 | 24.52835 | 38342 ft | 542 kts | 153° |
| 2026-05-07 16:24 | 37.23226 | 24.55338 | 38065 ft | 542 kts | 153° |
| 2026-05-07 16:25 | 37.20025 | 24.57835 | 37792 ft | 542 kts | 153° |
| 2026-05-07 16:25 | 37.16828 | 24.60330 | 37522 ft | 541 kts | 153° |
| 2026-05-07 16:25 | 37.13630 | 24.62823 | 37238 ft | 541 kts | 153° |
| 2026-05-07 16:25 | 37.10428 | 24.65310 | 36651 ft | 544 kts | 153° |
| 2026-05-07 16:26 | 37.07212 | 24.67805 | 35919 ft | 544 kts | 153° |
| 2026-05-07 16:26 | 37.04002 | 24.70292 | 35363 ft | 540 kts | 153° |
| 2026-05-07 16:26 | 37.00813 | 24.72761 | 35128 ft | 538 kts | 153° |
| 2026-05-07 16:26 | 36.98707 | 24.74390 | 34814 ft | 539 kts | 153° |
| 2026-05-07 16:27 | 36.94435 | 24.77687 | 33863 ft | 538 kts | 153° |
| 2026-05-07 16:27 | 36.91258 | 24.80141 | 33111 ft | 535 kts | 153° |
| 2026-05-07 16:27 | 36.88102 | 24.82580 | 32381 ft | 531 kts | 152° |
| 2026-05-07 16:27 | 36.84979 | 24.84996 | 31656 ft | 526 kts | 152° |
| 2026-05-07 16:28 | 36.81885 | 24.87390 | 30978 ft | 519 kts | 152° |
| 2026-05-07 16:28 | 36.78839 | 24.89753 | 30328 ft | 512 kts | 152° |
| 2026-05-07 16:28 | 36.75833 | 24.92082 | 29597 ft | 505 kts | 152° |
| 2026-05-07 16:28 | 36.72864 | 24.94377 | 28866 ft | 499 kts | 152° |
| 2026-05-07 16:29 | 36.69933 | 24.96639 | 28164 ft | 492 kts | 151° |
| 2026-05-07 16:29 | 36.67049 | 24.98858 | 27485 ft | 480 kts | 151° |
| 2026-05-07 16:29 | 36.64262 | 25.00998 | 26860 ft | 461 kts | 151° |
| 2026-05-07 16:29 | 36.61585 | 25.03046 | 26244 ft | 445 kts | 151° |
| 2026-05-07 16:30 | 36.58988 | 25.05026 | 25663 ft | 431 kts | 150° |
| 2026-05-07 16:30 | 36.56494 | 25.06925 | 25139 ft | 422 kts | 150° |
| 2026-05-07 16:30 | 36.53979 | 25.08844 | 24613 ft | 416 kts | 150° |
| 2026-05-07 16:30 | 36.51545 | 25.10703 | 24123 ft | 416 kts | 150° |
| 2026-05-07 16:31 | 36.49052 | 25.12607 | 23601 ft | 415 kts | 149° |
| 2026-05-07 16:31 | 36.46596 | 25.14479 | 23011 ft | 413 kts | 150° |
| 2026-05-07 16:31 | 36.44149 | 25.16346 | 22434 ft | 412 kts | 150° |
| 2026-05-07 16:31 | 36.41709 | 25.18208 | 21871 ft | 411 kts | 150° |
| 2026-05-07 16:32 | 36.39272 | 25.20064 | 21331 ft | 410 kts | 150° |
| 2026-05-07 16:32 | 36.36843 | 25.21913 | 20781 ft | 409 kts | 150° |
| 2026-05-07 16:32 | 36.34438 | 25.23743 | 20469 ft | 401 kts | 150° |
| 2026-05-07 16:32 | 36.32085 | 25.25533 | 20216 ft | 392 kts | 150° |
| 2026-05-07 16:33 | 36.29787 | 25.27278 | 19974 ft | 384 kts | 151° |
| 2026-05-07 16:33 | 36.27525 | 25.28988 | 19721 ft | 378 kts | 151° |
| 2026-05-07 16:33 | 36.25281 | 25.30680 | 19245 ft | 378 kts | 151° |
| 2026-05-07 16:33 | 36.23034 | 25.32377 | 18728 ft | 378 kts | 151° |
| 2026-05-07 16:34 | 36.20854 | 25.34030 | 18172 ft | 367 kts | 151° |
| 2026-05-07 16:34 | 36.18682 | 25.35678 | 17647 ft | 355 kts | 151° |
| 2026-05-07 16:34 | 36.16643 | 25.37237 | 17168 ft | 344 kts | 148° |
| 2026-05-07 16:34 | 36.14964 | 25.39346 | 16909 ft | 343 kts | 121° |
| 2026-05-07 16:35 | 36.14212 | 25.42101 | 16775 ft | 345 kts | 94° |
| 2026-05-07 16:35 | 36.14489 | 25.44974 | 16253 ft | 342 kts | 65° |
| 2026-05-07 16:35 | 36.15835 | 25.47347 | 15894 ft | 329 kts | 36° |
| 2026-05-07 16:35 | 36.17789 | 25.48615 | 15481 ft | 318 kts | 9° |
| 2026-05-07 16:36 | 36.19982 | 25.48768 | 15047 ft | 309 kts | 346° |
| 2026-05-07 16:36 | 36.21937 | 25.47868 | 14595 ft | 296 kts | 324° |
| 2026-05-07 16:36 | 36.23536 | 25.46281 | 14197 ft | 294 kts | 320° |
| 2026-05-07 16:36 | 36.25267 | 25.44933 | 13791 ft | 295 kts | 334° |
| 2026-05-07 16:37 | 36.27186 | 25.44160 | 13388 ft | 296 kts | 347° |
| 2026-05-07 16:37 | 36.29271 | 25.43997 | 12990 ft | 297 kts | 2° |
| 2026-05-07 16:37 | 36.31276 | 25.44370 | 12748 ft | 282 kts | 7° |
| 2026-05-07 16:37 | 36.33151 | 25.44764 | 12505 ft | 267 kts | 7° |
| 2026-05-07 16:38 | 36.34958 | 25.45131 | 12154 ft | 258 kts | 6° |
| 2026-05-07 16:38 | 36.36732 | 25.45488 | 11823 ft | 268 kts | 7° |
| 2026-05-07 16:38 | 36.38594 | 25.45862 | 11473 ft | 278 kts | 7° |
| 2026-05-07 16:38 | 36.40513 | 25.46252 | 11116 ft | 280 kts | 7° |
| 2026-05-07 16:39 | 36.41808 | 25.46517 | 10875 ft | 279 kts | 7° |
| 2026-05-07 16:39 | 36.44328 | 25.47032 | 10406 ft | 272 kts | 7° |
| 2026-05-07 16:39 | 36.46158 | 25.47405 | 10073 ft | 261 kts | 8° |
| 2026-05-07 16:39 | 36.47907 | 25.47763 | 9722 ft | 250 kts | 8° |
| 2026-05-07 16:40 | 36.49588 | 25.48109 | 9379 ft | 240 kts | 8° |
| 2026-05-07 16:40 | 36.51205 | 25.48442 | 9062 ft | 231 kts | 8° |
| 2026-05-07 16:40 | 36.52260 | 25.48661 | 8853 ft | 225 kts | 8° |
| 2026-05-07 16:40 | 36.53768 | 25.48972 | 8604 ft | 216 kts | 8° |
| 2026-05-07 16:41 | 36.55217 | 25.49268 | 8307 ft | 205 kts | 8° |
| 2026-05-07 16:41 | 36.56591 | 25.49548 | 8019 ft | 196 kts | 8° |
| 2026-05-07 16:41 | 36.57921 | 25.49818 | 7761 ft | 192 kts | 8° |
| 2026-05-07 16:41 | 36.59239 | 25.50084 | 7521 ft | 192 kts | 7° |
| 2026-05-07 16:42 | 36.60562 | 25.50083 | 7278 ft | 190 kts | 349° |
| 2026-05-07 16:42 | 36.61790 | 25.49580 | 7163 ft | 189 kts | 332° |
| 2026-05-07 16:42 | 36.62849 | 25.48630 | 7145 ft | 189 kts | 315° |
| 2026-05-07 16:42 | 36.63631 | 25.47322 | 7139 ft | 189 kts | 297° |
| 2026-05-07 16:43 | 36.64062 | 25.45768 | 6916 ft | 194 kts | 279° |
| 2026-05-07 16:43 | 36.64085 | 25.44143 | 6673 ft | 183 kts | 261° |
| 2026-05-07 16:43 | 36.63727 | 25.42639 | 6421 ft | 178 kts | 244° |
| 2026-05-07 16:43 | 36.63082 | 25.41335 | 6198 ft | 177 kts | 236° |
| 2026-05-07 16:44 | 36.62268 | 25.40194 | 5957 ft | 176 kts | 217° |
| 2026-05-07 16:44 | 36.61201 | 25.39468 | 5729 ft | 175 kts | 198° |
| 2026-05-07 16:44 | 36.60019 | 25.39239 | 5509 ft | 175 kts | 178° |
| 2026-05-07 16:44 | 36.58817 | 25.39525 | 5275 ft | 173 kts | 159° |
| 2026-05-07 16:45 | 36.57763 | 25.40009 | 5075 ft | 156 kts | 160° |
| 2026-05-07 16:45 | 36.56777 | 25.40454 | 4865 ft | 147 kts | 160° |
| 2026-05-07 16:45 | 36.55826 | 25.40884 | 4679 ft | 144 kts | 160° |
| 2026-05-07 16:45 | 36.54900 | 25.41316 | 4376 ft | 142 kts | 159° |
| 2026-05-07 16:46 | 36.53938 | 25.41763 | 3914 ft | 152 kts | 162° |
| 2026-05-07 16:46 | 36.52927 | 25.42173 | 3507 ft | 152 kts | 163° |
| 2026-05-07 16:46 | 36.51928 | 25.42581 | 3123 ft | 151 kts | 162° |
| 2026-05-07 16:46 | 36.50916 | 25.42989 | 2683 ft | 153 kts | 163° |
| 2026-05-07 16:47 | 36.49949 | 25.43442 | 2389 ft | 146 kts | 155° |
| 2026-05-07 16:47 | 36.49029 | 25.43939 | 2063 ft | 145 kts | 160° |
| 2026-05-07 16:47 | 36.48055 | 25.44314 | 1756 ft | 147 kts | 163° |
| 2026-05-07 16:47 | 36.47084 | 25.44667 | 1566 ft | 145 kts | 161° |
| 2026-05-07 16:48 | 36.46136 | 25.45107 | 1355 ft | 145 kts | 157° |
| 2026-05-07 16:48 | 36.45181 | 25.45532 | 1124 ft | 147 kts | 161° |
| 2026-05-07 16:48 | 36.44212 | 25.45940 | 919 ft | 147 kts | 160° |
| 2026-05-07 16:48 | 36.43257 | 25.46364 | 698 ft | 143 kts | 158° |
| 2026-05-07 16:49 | 36.42317 | 25.46792 | 484 ft | 144 kts | 162° |
| 2026-05-07 16:49 | 36.41403 | 25.47216 | 311 ft | 140 kts | 158° |
| 2026-05-07 16:49 | 36.40527 | 25.47628 | 119 ft | 127 kts | 159° |
| 2026-05-07 16:49 | 36.39800 | 25.47969 | 88 ft | 86 kts | 159° |
| 2026-05-07 16:50 | 36.39476 | 25.48123 | 73 ft | 35 kts | 159° |
| 2026-05-07 16:50 | 36.39244 | 25.48232 | 64 ft | 37 kts | 159° |
| 2026-05-07 16:50 | 36.39065 | 25.48308 | 55 ft | 21 kts | 178° |
| 2026-05-07 16:50 | 36.39005 | 25.48190 | 55 ft | 13 kts | 287° |
| 2026-05-07 16:51 | 36.39067 | 25.48147 | 58 ft | 8 kts | 340° |
| 2026-05-07 16:51 | 36.39113 | 25.48127 | 59 ft | 8 kts | 340° |
| 2026-05-07 16:51 | 36.39212 | 25.48080 | 61 ft | 16 kts | 339° |
| 2026-05-07 16:51 | 36.39307 | 25.48036 | 69 ft | 13 kts | 339° |
| 2026-05-07 16:52 | 36.39378 | 25.48002 | 69 ft | 12 kts | 339° |
| 2026-05-07 16:52 | 36.39499 | 25.47944 | 72 ft | 21 kts | 339° |
| 2026-05-07 16:52 | 36.39632 | 25.47882 | 83 ft | 20 kts | 339° |
| 2026-05-07 16:52 | 36.39758 | 25.47824 | 88 ft | 18 kts | 339° |
| 2026-05-07 16:53 | 36.39866 | 25.47773 | 91 ft | 15 kts | 339° |
| 2026-05-07 16:53 | 36.39950 | 25.47733 | 94 ft | 11 kts | 340° |
| 2026-05-07 16:53 | 36.40047 | 25.47688 | 99 ft | 17 kts | 339° |
| 2026-05-07 16:53 | 36.40056 | 25.47684 | 99 ft | 0 kts | 339° |
| 2026-05-07 16:57 | 36.40063 | 25.47681 | 99 ft | 5 kts | 340° |
| 2026-05-07 16:57 | 36.40101 | 25.47664 | 101 ft | 7 kts | 340° |
| 2026-05-07 16:57 | 36.40151 | 25.47639 | 102 ft | 9 kts | 339° |
| 2026-05-07 16:57 | 36.40215 | 25.47609 | 105 ft | 11 kts | 340° |
| 2026-05-07 16:58 | 36.40275 | 25.47579 | 107 ft | 6 kts | 317° |
| 2026-05-07 16:58 | 36.40269 | 25.47526 | 107 ft | 9 kts | 244° |
| 2026-05-07 16:58 | 36.40263 | 25.47450 | 108 ft | 17 kts | 276° |
| 2026-05-07 16:58 | 36.40301 | 25.47426 | 109 ft | 7 kts | 6° |
| 2026-05-07 16:59 | 36.40323 | 25.47420 | 109 ft | 0 kts | 329° |
| 2026-05-07 16:59 | 36.40322 | 25.47408 | 110 ft | 2 kts | 266° |
| 2026-05-07 16:59 | 36.40322 | 25.47392 | 110 ft | 0 kts | 269° |